Omaha/Offutt AFB, Nebraska
Current Conditions -  °F | °C
As of 12:58 PM on Monday 20 Oct 2014 (Local Time) from KOFF Reporting Station
Clear Clear  
Wind Chill: 68°   Ceiling: Unl
Heat Index: 68°   Visibility: 10mi
Dew Point: 43°   Wind: 3mph
Humidity: 41%   Direction: NA
Pressure: 30.08"   Gusts: NA
Location:  41.12°N, 95.92°W
Report Text: KOFF 201758Z AUTO VRB03KT 10SM CLR 20/06 A3008 RMK AO2 SLP190 T02000062 10200 20059
Loading
Personal Weather Stations






























Interactive Weather Map
Tropical Storm Tracking
New forecast layout! Learn more

10-Day Weather Forecast

Advertisements
Track Severe Weather on mobile